LiveATC.Net - Listen to live air traffic control over the Internet! Contact LiveATC.net for advertising information


ICAO: KOXC  IATA: OXC   Airport: Waterbury-Oxford Airport
City: Oxford   State/Province: Connecticut
Country: United States   Continent: North America
KOXC METAR Weather: KOXC 021550Z 25005KT 10SM SCT045 26/14 A2998
KOXC Flight Activity (FlightAware)
KOXC Airport Info   (AirNav) (iFlightPlanner)
KOXC VFR Sectional Chart   (iFlightPlanner) 
KOXC IFR Low Chart   (iFlightPlanner) 
KOXC Ground/Tower
Feed Status: DOWN
Last heard on: 2015-07-12 08:18:02 (21 days 8 hours 9 minutes ago)
KOXC Ground/Tower Audio Archives
FacilityFrequency
Oxford Ground121.650
Oxford Tower118.475


NOTICE

Unauthorized use prohibited. See LiveATC.net Terms of Service


Find LiveATC Audio Streams


Airport/ARTCC Code

Frequency
(e.g., 124.400, 128.75)
Site-wide search

Browse LiveATC Feeds
LiveATC Coverage Map
Top 50 LiveATC Feeds
Bad Weather Areas

LiveATC FAQ
Offer a LiveATC Feed
Contact LiveATC.net
Press Inquiries

LiveATC on iPhone
LiveATC on Android

LiveATC Mobile
(Mobile browser)

ATC Audio Archives
Interesting Recordings

LiveATC Forums


Home Page
About LiveATC.net
Make a Donation
LiveATC Bookstore

Terms of Use
Privacy Policy

ATC/Radar Sites
U.S. ARTCC Freqs
Canadian Air Freqs

AIRMETs/SIGMETs

FAA Airport Status
Nat'l Airspace Status
Arrival Demand Charts


Server Software By:
Icecast.org
Liquidsoap

Please make a donation to help us keep growing!